createdAt,value
2018-01-17T00:00:55.102Z,1.00
2018-01-17T00:03:21.796Z,0.97
2018-01-17T00:05:48.490Z,1.50
2018-01-17T00:08:15.209Z,0.70
2018-01-17T00:10:41.908Z,0.80
2018-01-17T00:13:08.593Z,0.93
2018-01-17T00:15:35.301Z,0.80
2018-01-17T00:18:01.970Z,0.87
2018-01-17T00:20:28.696Z,0.80
2018-01-17T00:22:55.392Z,0.73
2018-01-17T00:25:22.065Z,1.20
2018-01-17T00:27:48.794Z,0.70
2018-01-17T00:30:15.492Z,0.60
2018-01-17T00:32:42.193Z,0.60
2018-01-17T00:35:08.883Z,1.10
2018-01-17T00:37:35.567Z,1.03
2018-01-17T00:40:02.271Z,0.93
2018-01-17T00:42:29.354Z,1.13
2018-01-17T00:44:56.328Z,0.80
2018-01-17T00:47:23.013Z,0.80
2018-01-17T00:49:49.712Z,0.80
2018-01-17T00:52:16.389Z,0.80
2018-01-17T00:54:43.081Z,0.80
2018-01-17T00:57:09.786Z,0.70
2018-01-17T00:59:36.515Z,0.70
2018-01-17T01:02:03.227Z,1.00
2018-01-17T01:04:29.937Z,0.70
2018-01-17T01:06:57.354Z,0.50
2018-01-17T01:09:26.908Z,0.90
2018-01-17T01:11:53.615Z,0.60
2018-01-17T01:14:20.296Z,0.90
2018-01-17T01:16:47.030Z,0.70
2018-01-17T01:19:13.795Z,0.60
2018-01-17T01:21:40.499Z,1.20
2018-01-17T01:24:07.198Z,0.90
2018-01-17T01:26:33.889Z,0.73
2018-01-17T01:29:00.611Z,0.90
2018-01-17T01:31:27.290Z,1.30
2018-01-17T01:33:53.985Z,0.80
2018-01-17T01:36:20.684Z,0.70
2018-01-17T01:38:48.218Z,1.10
2018-01-17T01:41:14.903Z,1.10
2018-01-17T01:43:41.625Z,1.03
2018-01-17T01:46:08.392Z,1.13
2018-01-17T01:48:35.069Z,0.90
2018-01-17T01:51:01.763Z,1.20
2018-01-17T01:53:28.464Z,1.17
2018-01-17T01:55:55.225Z,1.17
2018-01-17T01:58:22.247Z,0.90
2018-01-17T02:00:49.016Z,1.07
2018-01-17T02:03:15.733Z,1.10
2018-01-17T02:05:42.471Z,1.03
2018-01-17T02:08:09.179Z,1.03
2018-01-17T02:10:35.868Z,1.23
2018-01-17T02:13:02.575Z,1.10
2018-01-17T02:15:29.306Z,1.17
2018-01-17T02:17:55.996Z,1.60
2018-01-17T02:20:22.709Z,0.77
2018-01-17T02:22:49.435Z,2.00
2018-01-17T02:25:16.138Z,1.00
2018-01-17T02:27:42.844Z,1.13
2018-01-17T02:30:09.590Z,1.57
2018-01-17T02:32:36.308Z,1.27
2018-01-17T02:35:03.039Z,1.40
2018-01-17T02:37:29.742Z,1.10
2018-01-17T02:40:02.198Z,1.20
2018-01-17T02:42:28.878Z,1.70
2018-01-17T02:44:55.559Z,1.40
2018-01-17T02:47:22.260Z,1.10
2018-01-17T02:49:49.552Z,1.33
2018-01-17T02:52:16.272Z,1.57
2018-01-17T02:54:42.973Z,1.23
2018-01-17T02:57:09.678Z,1.87
2018-01-17T02:59:36.388Z,1.20
2018-01-17T03:02:03.088Z,1.30
2018-01-17T03:04:29.767Z,1.60
2018-01-17T03:06:56.437Z,1.73
2018-01-17T03:09:23.152Z,1.73
2018-01-17T03:11:49.825Z,1.90
2018-01-17T03:14:16.550Z,1.20
2018-01-17T03:16:43.278Z,1.53
2018-01-17T03:19:10.202Z,1.90
2018-01-17T03:21:36.888Z,1.43
2018-01-17T03:24:03.585Z,1.63
2018-01-17T03:26:30.377Z,1.37
2018-01-17T03:28:57.094Z,1.53
2018-01-17T03:31:23.786Z,1.40
2018-01-17T03:33:50.465Z,1.20
2018-01-17T03:36:17.233Z,1.40
2018-01-17T03:38:43.936Z,1.23
2018-01-17T03:41:10.610Z,1.17
2018-01-17T03:43:37.392Z,0.93
2018-01-17T03:46:04.064Z,0.60
2018-01-17T03:48:30.748Z,0.50
2018-01-17T03:50:57.462Z,0.53
2018-01-17T03:53:24.423Z,0.60
2018-01-17T03:55:51.120Z,0.50
2018-01-17T03:58:17.826Z,0.40
2018-01-17T04:00:44.790Z,0.30
2018-01-17T04:03:11.474Z,0.60
2018-01-17T04:05:38.182Z,0.40
2018-01-17T04:08:04.901Z,0.70
2018-01-17T04:10:31.643Z,0.60
2018-01-17T04:12:58.368Z,0.60
2018-01-17T04:15:25.091Z,0.50
2018-01-17T04:17:51.810Z,0.40
2018-01-17T04:20:18.500Z,0.50
2018-01-17T04:22:46.122Z,0.30
2018-01-17T04:25:12.809Z,0.60
2018-01-17T04:27:40.287Z,0.30
2018-01-17T04:30:06.976Z,0.40
2018-01-17T04:32:33.685Z,0.50
2018-01-17T04:35:00.450Z,0.50
2018-01-17T04:37:27.232Z,0.50
2018-01-17T04:39:53.941Z,0.47
2018-01-17T04:42:20.646Z,0.40
2018-01-17T04:44:47.329Z,0.40
2018-01-17T04:47:14.126Z,0.50
2018-01-17T04:49:40.812Z,0.50
2018-01-17T04:52:07.496Z,0.47
2018-01-17T04:54:34.241Z,0.90
2018-01-17T04:57:00.941Z,0.50
2018-01-17T04:59:27.634Z,0.40
2018-01-17T05:01:54.352Z,0.80
2018-01-17T05:04:21.055Z,0.50
2018-01-17T05:06:47.760Z,0.60
2018-01-17T05:09:14.507Z,0.70
2018-01-17T05:11:41.243Z,0.60
2018-01-17T05:14:07.928Z,0.70
2018-01-17T05:16:34.655Z,0.67
2018-01-17T05:19:01.350Z,1.37
2018-01-17T05:21:28.026Z,0.70
2018-01-17T05:23:54.745Z,1.00
2018-01-17T05:26:21.423Z,0.80
2018-01-17T05:28:48.114Z,0.80
2018-01-17T05:31:14.897Z,1.30
2018-01-17T05:33:41.581Z,0.90
2018-01-17T05:36:08.297Z,0.70
2018-01-17T05:38:34.984Z,1.00
2018-01-17T05:41:01.660Z,1.00
2018-01-17T05:43:28.441Z,1.00
2018-01-17T05:45:55.219Z,0.73
2018-01-17T05:48:21.893Z,1.70
2018-01-17T05:50:48.654Z,0.70
2018-01-17T05:53:15.385Z,0.60
2018-01-17T05:55:42.064Z,0.80
2018-01-17T05:58:08.842Z,0.50
2018-01-17T06:00:35.519Z,0.70
2018-01-17T06:03:02.387Z,0.80
2018-01-17T06:05:29.122Z,0.50
2018-01-17T06:07:55.815Z,1.10
2018-01-17T06:10:22.598Z,0.67
2018-01-17T06:12:49.304Z,0.80
2018-01-17T06:15:18.112Z,0.77
2018-01-17T06:17:44.907Z,0.80
2018-01-17T06:20:11.590Z,0.87
2018-01-17T06:22:38.285Z,0.67
2018-01-17T06:25:05.163Z,1.00
2018-01-17T06:27:31.885Z,1.17
2018-01-17T06:29:58.601Z,1.33
2018-01-17T06:32:25.324Z,0.80
2018-01-17T06:34:52.055Z,1.07
2018-01-17T06:37:18.777Z,0.80
2018-01-17T06:39:45.472Z,0.70
2018-01-17T06:42:12.213Z,0.80
2018-01-17T06:44:38.923Z,0.70
2018-01-17T06:47:05.652Z,0.80
2018-01-17T06:49:32.330Z,0.80
2018-01-17T06:51:59.053Z,0.60
2018-01-17T06:54:25.767Z,0.93
2018-01-17T06:56:52.478Z,0.90
2018-01-17T06:59:19.152Z,0.67
2018-01-17T07:01:45.829Z,0.80
2018-01-17T07:04:12.530Z,0.90
2018-01-17T07:06:39.217Z,0.63
2018-01-17T07:09:05.932Z,0.77
2018-01-17T07:11:32.730Z,0.80
2018-01-17T07:13:59.400Z,0.90
2018-01-17T07:16:26.091Z,1.00
2018-01-17T07:18:52.820Z,0.70
2018-01-17T07:21:19.497Z,0.80
2018-01-17T07:23:46.185Z,1.20
2018-01-17T07:26:12.899Z,1.40
2018-01-17T07:28:39.629Z,0.70
2018-01-17T07:31:06.292Z,1.13
2018-01-17T07:33:33.013Z,1.83
2018-01-17T07:35:59.675Z,1.20
2018-01-17T07:38:26.375Z,1.17
2018-01-17T07:40:53.148Z,1.30
2018-01-17T07:43:19.857Z,0.90
2018-01-17T07:45:46.633Z,0.60
2018-01-17T07:48:13.340Z,1.33
2018-01-17T07:50:40.027Z,1.10
2018-01-17T07:53:06.733Z,1.00
2018-01-17T07:55:33.463Z,1.50
2018-01-17T07:58:00.207Z,1.43
2018-01-17T08:00:27.045Z,0.80
2018-01-17T08:02:53.721Z,1.37
2018-01-17T08:05:20.407Z,1.10
2018-01-17T08:07:47.227Z,1.00
2018-01-17T08:10:13.975Z,1.10
2018-01-17T08:12:40.666Z,1.50
2018-01-17T08:15:07.337Z,1.03
2018-01-17T08:17:34.089Z,1.00
2018-01-17T08:20:00.802Z,1.10
2018-01-17T08:22:27.565Z,0.87
2018-01-17T08:24:54.299Z,1.00
2018-01-17T08:27:21.052Z,1.00
2018-01-17T08:29:47.765Z,0.70
2018-01-17T08:32:14.461Z,0.90
2018-01-17T08:34:41.165Z,0.97
2018-01-17T08:37:07.844Z,1.00
2018-01-17T08:39:36.935Z,0.80
2018-01-17T08:42:03.674Z,1.10
2018-01-17T08:44:30.355Z,1.03
2018-01-17T08:46:57.060Z,1.03
2018-01-17T08:49:23.787Z,1.10
2018-01-17T08:51:50.550Z,1.10
2018-01-17T08:54:17.228Z,1.30
2018-01-17T08:56:43.925Z,0.80
2018-01-17T08:59:10.634Z,1.03
2018-01-17T09:01:37.325Z,1.20
2018-01-17T09:04:04.050Z,1.20
2018-01-17T09:06:30.820Z,1.00
2018-01-17T09:08:57.559Z,1.33
2018-01-17T09:11:24.253Z,1.67
2018-01-17T09:13:50.959Z,1.30
2018-01-17T09:16:17.653Z,1.70
2018-01-17T09:18:44.356Z,1.27
2018-01-17T09:21:11.037Z,1.23
2018-01-17T09:23:37.750Z,1.30
2018-01-17T09:26:04.433Z,1.17
2018-01-17T09:31:17.107Z,0.77
2018-01-17T09:33:43.808Z,0.80
2018-01-17T09:36:10.538Z,0.70
2018-01-17T09:38:37.197Z,1.00
2018-01-17T09:41:03.954Z,0.63
2018-01-17T09:43:30.686Z,1.00
2018-01-17T09:45:57.359Z,0.80
2018-01-17T09:48:24.038Z,0.70
2018-01-17T09:50:50.752Z,0.67
2018-01-17T09:53:17.452Z,1.00
2018-01-17T09:55:44.161Z,1.00
2018-01-17T09:58:10.841Z,0.70
2018-01-17T10:00:37.537Z,0.90
2018-01-17T10:03:04.267Z,0.90
2018-01-17T10:05:30.972Z,0.97
2018-01-17T10:07:57.726Z,0.83
2018-01-17T10:10:24.473Z,0.70
2018-01-17T10:12:51.228Z,0.80
2018-01-17T10:15:17.988Z,0.70
2018-01-17T10:17:44.676Z,0.73
2018-01-17T10:20:11.398Z,0.80
2018-01-17T10:22:38.082Z,0.70
2018-01-17T10:25:04.747Z,0.67
2018-01-17T10:27:31.498Z,0.73
2018-01-17T10:29:58.227Z,0.87
2018-01-17T10:32:24.909Z,0.90
2018-01-17T10:34:51.633Z,0.90
2018-01-17T10:37:18.319Z,1.00
2018-01-17T10:39:45.073Z,1.00
2018-01-17T10:42:11.782Z,1.10
2018-01-17T10:44:38.516Z,0.90
2018-01-17T10:47:05.181Z,1.40
2018-01-17T10:49:31.962Z,1.30
2018-01-17T10:51:58.670Z,1.30
2018-01-17T10:54:25.348Z,1.13
2018-01-17T10:56:52.067Z,1.20
2018-01-17T10:59:18.773Z,1.17
2018-01-17T11:01:45.493Z,1.33
2018-01-17T11:04:12.276Z,1.10
2018-01-17T11:06:39.034Z,1.33
2018-01-17T11:09:05.729Z,1.40
2018-01-17T11:11:32.446Z,1.43
2018-01-17T11:13:59.211Z,1.50
2018-01-17T11:16:25.947Z,1.30
2018-01-17T11:18:52.664Z,1.47
2018-01-17T11:21:19.367Z,1.20
2018-01-17T11:23:46.093Z,2.30
2018-01-17T11:26:12.822Z,1.50
2018-01-17T11:28:39.527Z,1.40
2018-01-17T11:31:06.258Z,1.30
2018-01-17T11:33:32.950Z,1.63
2018-01-17T11:35:59.705Z,1.27
2018-01-17T11:38:26.443Z,1.40
2018-01-17T11:40:53.152Z,1.17
2018-01-17T11:43:19.843Z,1.50
2018-01-17T11:45:46.590Z,1.20
2018-01-17T11:48:13.268Z,1.93
2018-01-17T11:50:39.993Z,1.40
2018-01-17T11:53:06.751Z,1.90
2018-01-17T11:55:33.509Z,1.50
2018-01-17T11:58:00.173Z,1.40
2018-01-17T12:00:26.912Z,1.20
2018-01-17T12:02:53.599Z,1.43
2018-01-17T12:05:20.298Z,1.57
2018-01-17T12:07:47.029Z,1.80
2018-01-17T12:10:13.753Z,2.07
2018-01-17T12:12:40.502Z,1.40
2018-01-17T12:15:07.192Z,2.03
2018-01-17T12:17:33.901Z,1.63
2018-01-17T12:20:00.573Z,2.20
2018-01-17T12:22:27.406Z,2.27
2018-01-17T12:24:54.097Z,2.13
2018-01-17T12:27:20.773Z,1.53
2018-01-17T12:29:47.489Z,2.00
2018-01-17T12:32:14.236Z,2.50
2018-01-17T12:34:40.926Z,2.10
2018-01-17T12:37:07.638Z,1.70
2018-01-17T12:39:34.377Z,2.47
2018-01-17T12:42:01.092Z,1.70
2018-01-17T12:44:27.806Z,2.30
2018-01-17T12:46:54.495Z,2.23
2018-01-17T12:49:21.243Z,2.43
2018-01-17T12:51:47.944Z,2.57
2018-01-17T12:54:14.719Z,2.83
2018-01-17T12:56:41.437Z,2.13
2018-01-17T12:59:08.119Z,2.53
2018-01-17T13:01:34.805Z,2.67
2018-01-17T13:04:01.593Z,2.37
2018-01-17T13:06:28.268Z,2.33
2018-01-17T13:08:54.972Z,2.23
2018-01-17T13:11:21.676Z,2.87
2018-01-17T13:13:48.350Z,2.23
2018-01-17T13:16:15.059Z,1.70
2018-01-17T13:18:41.783Z,2.23
2018-01-17T13:21:08.504Z,2.53
2018-01-17T13:23:35.183Z,1.87
2018-01-17T13:26:01.884Z,1.93
2018-01-17T13:28:28.594Z,2.60
2018-01-17T13:30:55.367Z,2.50
2018-01-17T13:33:22.170Z,2.10
2018-01-17T13:35:48.913Z,2.90
2018-01-17T13:38:15.614Z,2.00
2018-01-17T13:40:42.358Z,1.87
2018-01-17T13:43:09.087Z,2.20
2018-01-17T13:45:35.805Z,2.33
2018-01-17T13:48:02.468Z,2.50
2018-01-17T13:50:29.185Z,1.87
2018-01-17T13:52:56.022Z,2.80
2018-01-17T13:55:22.728Z,2.40
2018-01-17T13:57:49.864Z,2.47
2018-01-17T14:00:16.573Z,2.20
2018-01-17T14:02:43.336Z,2.13
2018-01-17T14:05:10.027Z,2.57
2018-01-17T14:07:37.423Z,2.67
2018-01-17T14:10:04.241Z,1.90
2018-01-17T14:12:30.960Z,3.40
2018-01-17T14:14:57.723Z,3.17
2018-01-17T14:17:24.401Z,2.40
2018-01-17T14:19:51.088Z,2.60
2018-01-17T14:22:17.813Z,3.30
2018-01-17T14:24:44.549Z,2.87
2018-01-17T14:27:11.241Z,2.40
2018-01-17T14:29:37.951Z,2.07
2018-01-17T14:32:05.994Z,1.83
2018-01-17T14:34:32.662Z,2.70
2018-01-17T14:36:59.401Z,2.60
2018-01-17T14:39:26.094Z,2.10
2018-01-17T14:41:52.799Z,2.60
2018-01-17T14:44:19.626Z,2.80
2018-01-17T14:46:46.612Z,2.70
2018-01-17T14:49:13.358Z,2.27
2018-01-17T14:51:40.041Z,3.07
2018-01-17T14:54:07.304Z,1.80
2018-01-17T14:56:34.055Z,2.77
2018-01-17T14:59:00.771Z,2.57
2018-01-17T15:01:27.544Z,1.90
2018-01-17T15:03:54.300Z,2.10
2018-01-17T15:06:21.025Z,2.37
2018-01-17T15:08:47.737Z,2.63
2018-01-17T15:11:14.396Z,2.27
2018-01-17T15:13:41.121Z,2.37
2018-01-17T15:16:07.881Z,2.27
2018-01-17T15:18:34.645Z,3.00
2018-01-17T15:21:01.331Z,2.83
2018-01-17T15:23:28.049Z,2.27
2018-01-17T15:25:54.821Z,2.73
2018-01-17T15:28:21.625Z,2.60
2018-01-17T15:30:48.318Z,3.17
2018-01-17T15:33:15.038Z,2.57
2018-01-17T15:35:41.784Z,2.33
2018-01-17T15:38:08.565Z,2.50
2018-01-17T15:40:35.474Z,2.80
2018-01-17T15:43:02.224Z,2.90
2018-01-17T15:45:28.951Z,2.90
2018-01-17T15:47:55.627Z,2.83
2018-01-17T15:50:22.403Z,3.57
2018-01-17T15:52:49.163Z,4.10
2018-01-17T15:55:15.948Z,3.80
2018-01-17T15:57:42.674Z,4.10
2018-01-17T16:00:09.447Z,3.27
2018-01-17T16:02:36.162Z,4.20
2018-01-17T16:05:02.883Z,3.27
2018-01-17T16:07:29.636Z,2.70
2018-01-17T16:09:56.376Z,2.63
2018-01-17T16:12:23.082Z,3.03
2018-01-17T16:14:50.426Z,2.80
2018-01-17T16:17:17.115Z,2.83
2018-01-17T16:19:43.841Z,3.10
2018-01-17T16:22:10.527Z,2.57
2018-01-17T16:24:37.363Z,3.40
2018-01-17T16:27:04.129Z,3.33
2018-01-17T16:29:30.809Z,3.07
2018-01-17T16:31:57.533Z,3.30
2018-01-17T16:34:24.257Z,2.50
2018-01-17T16:36:51.028Z,3.50
2018-01-17T16:39:17.731Z,3.53
2018-01-17T16:41:44.422Z,3.50
2018-01-17T16:44:11.142Z,2.73
2018-01-17T16:46:37.843Z,3.23
2018-01-17T16:49:04.538Z,3.50
2018-01-17T16:51:31.339Z,2.10
2018-01-17T16:53:58.021Z,3.00
2018-01-17T16:56:24.771Z,2.70
2018-01-17T16:58:51.516Z,3.07
2018-01-17T17:01:18.211Z,2.67
2018-01-17T17:03:44.951Z,2.97
2018-01-17T17:06:12.434Z,3.10
2018-01-17T17:08:39.136Z,2.60
2018-01-17T17:11:05.810Z,3.10
2018-01-17T17:13:32.519Z,2.80
2018-01-17T17:15:59.232Z,3.40
2018-01-17T17:18:25.926Z,3.10
2018-01-17T17:20:52.694Z,2.90
2018-01-17T17:23:19.461Z,2.97
2018-01-17T17:25:46.222Z,3.00
2018-01-17T17:28:13.019Z,2.90
2018-01-17T17:30:39.772Z,2.97
2018-01-17T17:33:06.463Z,2.87
2018-01-17T17:35:33.181Z,2.80
2018-01-17T17:37:59.939Z,3.07
2018-01-17T17:40:26.651Z,3.40
2018-01-17T17:42:53.346Z,2.60
2018-01-17T17:45:20.085Z,3.50
2018-01-17T17:47:46.800Z,3.37
2018-01-17T17:50:13.565Z,4.03
2018-01-17T17:52:40.279Z,2.57
2018-01-17T17:55:07.867Z,2.97
2018-01-17T17:57:34.537Z,2.80
2018-01-17T18:00:02.369Z,3.70
2018-01-17T18:02:29.157Z,2.67
2018-01-17T18:04:55.854Z,2.90
2018-01-17T18:07:22.854Z,2.80
2018-01-17T18:09:50.403Z,4.00
2018-01-17T18:12:17.429Z,3.13
2018-01-17T18:14:44.365Z,3.10
2018-01-17T18:17:11.072Z,3.40
2018-01-17T18:19:37.781Z,2.90
2018-01-17T18:22:04.500Z,3.37
2018-01-17T18:24:31.327Z,3.40
2018-01-17T18:26:58.031Z,2.60
2018-01-17T18:29:24.747Z,3.13
2018-01-17T18:31:51.472Z,4.30
2018-01-17T18:34:18.227Z,3.00
2018-01-17T18:36:45.152Z,3.33
2018-01-17T18:39:11.917Z,2.90
2018-01-17T18:41:38.677Z,2.57
2018-01-17T18:44:05.445Z,3.07
2018-01-17T18:46:32.163Z,3.27
2018-01-17T18:48:58.844Z,3.13
2018-01-17T18:51:25.585Z,2.77
2018-01-17T18:53:52.310Z,3.07
2018-01-17T18:56:19.035Z,3.40
2018-01-17T18:58:45.734Z,2.90
2018-01-17T19:01:12.454Z,3.43
2018-01-17T19:03:39.186Z,3.10
2018-01-17T19:06:05.884Z,3.47
2018-01-17T19:08:32.592Z,3.50
2018-01-17T19:10:59.313Z,3.57
2018-01-17T19:13:26.030Z,2.80
2018-01-17T19:15:52.762Z,4.40
2018-01-17T19:18:19.493Z,3.20
2018-01-17T19:20:46.212Z,3.30
2018-01-17T19:23:13.095Z,3.77
2018-01-17T19:25:39.798Z,3.00
2018-01-17T19:28:06.498Z,2.80
2018-01-17T19:30:33.416Z,3.03
2018-01-17T19:33:00.096Z,2.73
2018-01-17T19:35:26.799Z,3.33
2018-01-17T19:37:53.757Z,3.27
2018-01-17T19:40:20.727Z,2.83
2018-01-17T19:42:47.449Z,3.13
2018-01-17T19:45:14.203Z,3.00
2018-01-17T19:47:40.998Z,2.73
2018-01-17T19:50:07.711Z,2.80
2018-01-17T19:52:34.440Z,3.00
2018-01-17T19:55:02.069Z,2.73
2018-01-17T19:57:28.830Z,3.20
2018-01-17T19:59:58.983Z,3.17
2018-01-17T20:02:25.701Z,4.20
2018-01-17T20:04:52.467Z,3.17
2018-01-17T20:07:19.243Z,3.93
2018-01-17T20:09:46.066Z,3.07
2018-01-17T20:12:13.011Z,3.27
2018-01-17T20:14:39.735Z,3.30
2018-01-17T20:17:06.464Z,3.47
2018-01-17T20:19:33.189Z,3.03
2018-01-17T20:21:59.860Z,2.40
2018-01-17T20:24:27.112Z,3.23
2018-01-17T20:26:53.852Z,2.73
2018-01-17T20:29:20.634Z,2.40
2018-01-17T20:31:47.343Z,2.67
2018-01-17T20:34:14.108Z,2.50
2018-01-17T20:36:40.777Z,2.63
2018-01-17T20:39:07.485Z,2.53
2018-01-17T20:41:34.328Z,2.30
2018-01-17T20:44:01.124Z,2.57
2018-01-17T20:46:27.831Z,1.70
2018-01-17T20:48:54.581Z,2.30
2018-01-17T20:51:21.358Z,2.23
2018-01-17T20:53:48.109Z,2.47
2018-01-17T20:56:14.941Z,2.40
2018-01-17T20:58:41.661Z,2.27
2018-01-17T21:01:08.378Z,2.33
2018-01-17T21:03:35.230Z,2.57
2018-01-17T21:06:02.101Z,2.30
2018-01-17T21:08:28.842Z,2.17
2018-01-17T21:10:55.658Z,2.03
2018-01-17T21:13:22.415Z,2.50
2018-01-17T21:15:49.111Z,2.20
2018-01-17T21:18:15.835Z,2.40
2018-01-17T21:20:43.029Z,2.23
2018-01-17T21:23:09.756Z,2.70
2018-01-17T21:25:36.445Z,2.40
2018-01-17T21:28:03.176Z,1.73
2018-01-17T21:30:29.927Z,2.30
2018-01-17T21:32:56.628Z,2.70
2018-01-17T21:35:23.329Z,2.63
2018-01-17T21:37:50.027Z,2.40
2018-01-17T21:40:16.906Z,2.30
2018-01-17T21:42:49.319Z,1.77
2018-01-17T21:45:31.778Z,1.30
2018-01-17T21:47:58.491Z,1.97
2018-01-17T21:50:25.181Z,2.37
2018-01-17T21:52:51.880Z,2.23
2018-01-17T21:55:18.656Z,2.10
2018-01-17T21:57:45.407Z,2.63
2018-01-17T22:00:12.160Z,2.10
2018-01-17T22:02:38.902Z,2.50
2018-01-17T22:05:05.646Z,3.37
2018-01-17T22:07:32.442Z,2.60
2018-01-17T22:09:59.167Z,2.20
2018-01-17T22:12:25.927Z,2.37
2018-01-17T22:14:52.677Z,1.90
2018-01-17T22:17:19.389Z,2.17
2018-01-17T22:19:46.128Z,2.20
2018-01-17T22:22:12.888Z,3.20
2018-01-17T22:24:39.645Z,3.00
2018-01-17T22:27:06.370Z,2.43
2018-01-17T22:29:33.077Z,2.80
2018-01-17T22:31:59.785Z,2.97
2018-01-17T22:34:26.493Z,2.90
2018-01-17T22:36:53.206Z,2.27
2018-01-17T22:39:19.916Z,3.17
2018-01-17T22:41:46.881Z,2.70
2018-01-17T22:44:13.580Z,3.10
2018-01-17T22:46:41.292Z,2.53
2018-01-17T22:49:08.129Z,2.93
2018-01-17T22:51:34.882Z,2.60
2018-01-17T22:54:01.592Z,2.77
2018-01-17T22:56:29.533Z,3.73
2018-01-17T22:58:56.250Z,2.50
2018-01-17T23:01:23.005Z,2.90
2018-01-17T23:03:49.760Z,2.70
2018-01-17T23:06:16.473Z,3.57
2018-01-17T23:08:43.392Z,2.67
2018-01-17T23:11:10.221Z,2.73
2018-01-17T23:13:36.935Z,2.97
2018-01-17T23:16:03.648Z,3.00
2018-01-17T23:18:30.357Z,3.10
2018-01-17T23:20:57.083Z,3.73
2018-01-17T23:23:24.050Z,3.03
2018-01-17T23:25:50.880Z,3.73
2018-01-17T23:28:17.644Z,3.33
2018-01-17T23:30:44.343Z,3.77
2018-01-17T23:33:11.047Z,3.40
2018-01-17T23:35:37.789Z,3.53
2018-01-17T23:38:05.530Z,3.63
2018-01-17T23:40:32.376Z,3.10
2018-01-17T23:42:59.093Z,3.10
2018-01-17T23:45:25.890Z,3.37
2018-01-17T23:47:52.674Z,3.47
2018-01-17T23:50:19.383Z,4.10
2018-01-17T23:52:46.090Z,3.40
2018-01-17T23:55:12.841Z,2.93
2018-01-17T23:57:39.639Z,2.80
